sensor_id;sensor_type;location;lat;lon;timestamp;P1;durP1;ratioP1;P2;durP2;ratioP2
7045;SDS011;3564;53.326;10.356;2022-09-12T00:01:30;2.20;;;2.00;;
7045;SDS011;3564;53.326;10.356;2022-09-12T00:03:50;2.20;;;2.00;;
7045;SDS011;3564;53.326;10.356;2022-09-12T00:06:23;2.67;;;2.00;;
7045;SDS011;3564;53.326;10.356;2022-09-12T00:08:58;1.80;;;1.70;;
7045;SDS011;3564;53.326;10.356;2022-09-12T00:11:27;2.30;;;2.10;;
7045;SDS011;3564;53.326;10.356;2022-09-12T00:13:56;1.90;;;1.80;;
7045;SDS011;3564;53.326;10.356;2022-09-12T00:16:24;3.30;;;2.10;;
7045;SDS011;3564;53.326;10.356;2022-09-12T00:18:51;3.00;;;2.70;;
7045;SDS011;3564;53.326;10.356;2022-09-12T00:21:18;3.70;;;2.30;;
7045;SDS011;3564;53.326;10.356;2022-09-12T00:23:45;2.40;;;2.20;;
7045;SDS011;3564;53.326;10.356;2022-09-12T00:26:11;4.03;;;1.90;;
7045;SDS011;3564;53.326;10.356;2022-09-12T00:28:38;2.23;;;1.83;;
7045;SDS011;3564;53.326;10.356;2022-09-12T00:31:06;2.20;;;2.03;;
7045;SDS011;3564;53.326;10.356;2022-09-12T00:33:34;2.30;;;2.10;;
7045;SDS011;3564;53.326;10.356;2022-09-12T00:36:03;4.90;;;2.30;;
7045;SDS011;3564;53.326;10.356;2022-09-12T00:38:31;4.00;;;2.17;;
7045;SDS011;3564;53.326;10.356;2022-09-12T00:40:57;2.20;;;2.00;;
7045;SDS011;3564;53.326;10.356;2022-09-12T00:45:54;1.83;;;1.73;;
7045;SDS011;3564;53.326;10.356;2022-09-12T00:48:22;1.90;;;1.80;;
7045;SDS011;3564;53.326;10.356;2022-09-12T00:50:55;2.67;;;1.97;;
7045;SDS011;3564;53.326;10.356;2022-09-12T00:53:21;2.00;;;1.80;;
7045;SDS011;3564;53.326;10.356;2022-09-12T00:55:47;1.97;;;1.77;;
7045;SDS011;3564;53.326;10.356;2022-09-12T00:58:35;2.00;;;1.90;;
7045;SDS011;3564;53.326;10.356;2022-09-12T01:01:04;3.33;;;1.70;;
7045;SDS011;3564;53.326;10.356;2022-09-12T01:03:30;1.80;;;1.70;;
7045;SDS011;3564;53.326;10.356;2022-09-12T01:08:31;2.37;;;2.00;;
7045;SDS011;3564;53.326;10.356;2022-09-12T01:11:01;3.77;;;2.00;;
7045;SDS011;3564;53.326;10.356;2022-09-12T01:13:28;2.00;;;1.80;;
7045;SDS011;3564;53.326;10.356;2022-09-12T01:15:54;2.00;;;1.90;;
7045;SDS011;3564;53.326;10.356;2022-09-12T01:21:21;2.70;;;2.00;;
7045;SDS011;3564;53.326;10.356;2022-09-12T01:29:51;1.87;;;1.77;;
7045;SDS011;3564;53.326;10.356;2022-09-12T01:35:31;2.73;;;1.97;;
7045;SDS011;3564;53.326;10.356;2022-09-12T01:38:08;2.20;;;2.00;;
7045;SDS011;3564;53.326;10.356;2022-09-12T01:40:47;3.27;;;1.80;;
7045;SDS011;3564;53.326;10.356;2022-09-12T01:43:55;1.80;;;1.70;;
7045;SDS011;3564;53.326;10.356;2022-09-12T01:49:19;2.77;;;1.83;;
7045;SDS011;3564;53.326;10.356;2022-09-12T01:54:40;3.03;;;1.80;;
7045;SDS011;3564;53.326;10.356;2022-09-12T01:57:16;2.20;;;1.80;;
7045;SDS011;3564;53.326;10.356;2022-09-12T01:59:57;2.57;;;1.67;;
7045;SDS011;3564;53.326;10.356;2022-09-12T02:05:10;2.63;;;1.87;;
7045;SDS011;3564;53.326;10.356;2022-09-12T02:08:16;1.63;;;1.53;;
7045;SDS011;3564;53.326;10.356;2022-09-12T02:10:55;1.70;;;1.60;;
7045;SDS011;3564;53.326;10.356;2022-09-12T02:13:29;3.13;;;1.90;;
7045;SDS011;3564;53.326;10.356;2022-09-12T02:16:08;2.23;;;1.63;;
7045;SDS011;3564;53.326;10.356;2022-09-12T02:18:38;3.40;;;1.83;;
7045;SDS011;3564;53.326;10.356;2022-09-12T02:21:08;2.03;;;1.83;;
7045;SDS011;3564;53.326;10.356;2022-09-12T02:23:35;1.90;;;1.80;;
7045;SDS011;3564;53.326;10.356;2022-09-12T02:26:21;1.83;;;1.73;;
7045;SDS011;3564;53.326;10.356;2022-09-12T02:28:53;2.40;;;1.70;;
7045;SDS011;3564;53.326;10.356;2022-09-12T02:31:33;1.83;;;1.73;;
7045;SDS011;3564;53.326;10.356;2022-09-12T02:37:03;2.63;;;1.90;;
7045;SDS011;3564;53.326;10.356;2022-09-12T02:39:45;1.70;;;1.60;;
7045;SDS011;3564;53.326;10.356;2022-09-12T02:42:11;2.77;;;1.80;;
7045;SDS011;3564;53.326;10.356;2022-09-12T02:44:37;2.40;;;1.63;;
7045;SDS011;3564;53.326;10.356;2022-09-12T02:47:19;2.80;;;1.80;;
7045;SDS011;3564;53.326;10.356;2022-09-12T02:50:09;2.67;;;2.13;;
7045;SDS011;3564;53.326;10.356;2022-09-12T02:52:35;4.00;;;2.77;;
7045;SDS011;3564;53.326;10.356;2022-09-12T02:55:01;4.93;;;2.80;;
7045;SDS011;3564;53.326;10.356;2022-09-12T02:57:31;3.17;;;2.70;;
7045;SDS011;3564;53.326;10.356;2022-09-12T02:59:58;2.93;;;2.73;;
7045;SDS011;3564;53.326;10.356;2022-09-12T03:05:23;2.80;;;2.60;;
7045;SDS011;3564;53.326;10.356;2022-09-12T03:16:26;2.70;;;2.50;;
7045;SDS011;3564;53.326;10.356;2022-09-12T03:19:07;2.87;;;2.67;;
7045;SDS011;3564;53.326;10.356;2022-09-12T03:27:24;3.50;;;2.30;;
7045;SDS011;3564;53.326;10.356;2022-09-12T03:30:03;3.80;;;2.40;;
7045;SDS011;3564;53.326;10.356;2022-09-12T03:32:41;3.30;;;2.53;;
7045;SDS011;3564;53.326;10.356;2022-09-12T03:35:11;2.43;;;2.23;;
7045;SDS011;3564;53.326;10.356;2022-09-12T03:37:39;2.60;;;2.40;;
7045;SDS011;3564;53.326;10.356;2022-09-12T03:40:05;2.37;;;2.17;;
7045;SDS011;3564;53.326;10.356;2022-09-12T03:42:31;2.57;;;2.30;;
7045;SDS011;3564;53.326;10.356;2022-09-12T03:44:57;3.53;;;2.10;;
7045;SDS011;3564;53.326;10.356;2022-09-12T03:47:22;2.60;;;2.40;;
7045;SDS011;3564;53.326;10.356;2022-09-12T03:49:48;3.33;;;2.20;;
7045;SDS011;3564;53.326;10.356;2022-09-12T03:52:14;2.37;;;2.17;;
7045;SDS011;3564;53.326;10.356;2022-09-12T03:54:39;3.30;;;2.10;;
7045;SDS011;3564;53.326;10.356;2022-09-12T03:57:05;3.53;;;2.30;;
7045;SDS011;3564;53.326;10.356;2022-09-12T03:59:31;2.20;;;2.10;;
7045;SDS011;3564;53.326;10.356;2022-09-12T04:02:00;2.07;;;1.97;;
7045;SDS011;3564;53.326;10.356;2022-09-12T04:04:25;2.70;;;1.90;;
7045;SDS011;3564;53.326;10.356;2022-09-12T04:06:51;2.27;;;2.07;;
7045;SDS011;3564;53.326;10.356;2022-09-12T04:09:17;4.83;;;1.87;;
7045;SDS011;3564;53.326;10.356;2022-09-12T04:11:43;2.10;;;1.90;;
7045;SDS011;3564;53.326;10.356;2022-09-12T04:14:09;2.30;;;2.00;;
7045;SDS011;3564;53.326;10.356;2022-09-12T04:16:36;2.40;;;1.80;;
7045;SDS011;3564;53.326;10.356;2022-09-12T04:19:01;2.57;;;2.13;;
7045;SDS011;3564;53.326;10.356;2022-09-12T04:21:27;1.80;;;1.70;;
7045;SDS011;3564;53.326;10.356;2022-09-12T04:23:53;1.80;;;1.70;;
7045;SDS011;3564;53.326;10.356;2022-09-12T04:26:19;2.37;;;2.10;;
7045;SDS011;3564;53.326;10.356;2022-09-12T04:28:45;3.00;;;2.10;;
7045;SDS011;3564;53.326;10.356;2022-09-12T04:31:13;3.33;;;2.10;;
7045;SDS011;3564;53.326;10.356;2022-09-12T04:33:42;1.97;;;1.80;;
7045;SDS011;3564;53.326;10.356;2022-09-12T04:36:10;2.00;;;1.90;;
7045;SDS011;3564;53.326;10.356;2022-09-12T04:38:38;2.13;;;1.93;;
7045;SDS011;3564;53.326;10.356;2022-09-12T04:44:01;2.13;;;1.93;;
7045;SDS011;3564;53.326;10.356;2022-09-12T04:46:45;2.10;;;1.90;;
7045;SDS011;3564;53.326;10.356;2022-09-12T04:49:12;2.07;;;1.90;;
7045;SDS011;3564;53.326;10.356;2022-09-12T04:51:40;3.00;;;2.30;;
7045;SDS011;3564;53.326;10.356;2022-09-12T04:54:08;3.27;;;2.73;;
7045;SDS011;3564;53.326;10.356;2022-09-12T04:56:38;2.93;;;2.50;;
7045;SDS011;3564;53.326;10.356;2022-09-12T04:59:05;2.97;;;2.77;;
7045;SDS011;3564;53.326;10.356;2022-09-12T05:01:32;3.30;;;3.00;;
7045;SDS011;3564;53.326;10.356;2022-09-12T05:03:59;2.90;;;2.60;;
7045;SDS011;3564;53.326;10.356;2022-09-12T05:06:27;4.07;;;3.20;;
7045;SDS011;3564;53.326;10.356;2022-09-12T05:08:55;4.43;;;3.50;;
7045;SDS011;3564;53.326;10.356;2022-09-12T05:11:23;4.67;;;3.40;;
7045;SDS011;3564;53.326;10.356;2022-09-12T05:13:51;3.70;;;3.40;;
7045;SDS011;3564;53.326;10.356;2022-09-12T05:16:17;3.43;;;3.13;;
7045;SDS011;3564;53.326;10.356;2022-09-12T05:18:44;4.50;;;3.73;;
7045;SDS011;3564;53.326;10.356;2022-09-12T05:21:11;4.97;;;3.53;;
7045;SDS011;3564;53.326;10.356;2022-09-12T05:23:39;4.43;;;3.80;;
7045;SDS011;3564;53.326;10.356;2022-09-12T05:26:06;4.23;;;3.80;;
7045;SDS011;3564;53.326;10.356;2022-09-12T05:28:36;5.80;;;3.80;;
7045;SDS011;3564;53.326;10.356;2022-09-12T05:31:06;4.43;;;3.63;;
7045;SDS011;3564;53.326;10.356;2022-09-12T05:33:49;3.87;;;3.47;;
7045;SDS011;3564;53.326;10.356;2022-09-12T05:36:23;3.90;;;3.50;;
7045;SDS011;3564;53.326;10.356;2022-09-12T05:38:50;3.37;;;3.07;;
7045;SDS011;3564;53.326;10.356;2022-09-12T05:41:17;4.00;;;3.30;;
7045;SDS011;3564;53.326;10.356;2022-09-12T05:43:43;5.73;;;3.43;;
7045;SDS011;3564;53.326;10.356;2022-09-12T05:46:11;4.80;;;3.20;;
7045;SDS011;3564;53.326;10.356;2022-09-12T05:48:39;3.97;;;3.40;;
7045;SDS011;3564;53.326;10.356;2022-09-12T05:51:07;3.43;;;2.93;;
7045;SDS011;3564;53.326;10.356;2022-09-12T05:53:38;4.60;;;3.23;;
7045;SDS011;3564;53.326;10.356;2022-09-12T05:56:06;4.73;;;3.50;;
7045;SDS011;3564;53.326;10.356;2022-09-12T05:58:34;4.57;;;2.97;;
7045;SDS011;3564;53.326;10.356;2022-09-12T06:01:02;6.20;;;2.73;;
7045;SDS011;3564;53.326;10.356;2022-09-12T06:03:38;3.73;;;2.90;;
7045;SDS011;3564;53.326;10.356;2022-09-12T06:06:06;2.77;;;2.57;;
7045;SDS011;3564;53.326;10.356;2022-09-12T06:08:32;3.07;;;2.77;;
7045;SDS011;3564;53.326;10.356;2022-09-12T06:11:02;5.03;;;2.93;;
7045;SDS011;3564;53.326;10.356;2022-09-12T06:13:33;5.50;;;3.07;;
7045;SDS011;3564;53.326;10.356;2022-09-12T06:16:11;3.70;;;2.60;;
7045;SDS011;3564;53.326;10.356;2022-09-12T06:18:38;4.17;;;3.47;;
7045;SDS011;3564;53.326;10.356;2022-09-12T06:21:06;4.00;;;2.90;;
7045;SDS011;3564;53.326;10.356;2022-09-12T06:23:33;7.83;;;3.40;;
7045;SDS011;3564;53.326;10.356;2022-09-12T06:25:59;3.77;;;3.40;;
7045;SDS011;3564;53.326;10.356;2022-09-12T06:28:26;3.60;;;3.30;;
7045;SDS011;3564;53.326;10.356;2022-09-12T06:30:51;4.63;;;3.40;;
7045;SDS011;3564;53.326;10.356;2022-09-12T06:33:17;3.73;;;3.43;;
7045;SDS011;3564;53.326;10.356;2022-09-12T06:35:43;4.53;;;3.27;;
7045;SDS011;3564;53.326;10.356;2022-09-12T06:38:09;3.57;;;3.27;;
7045;SDS011;3564;53.326;10.356;2022-09-12T06:40:39;4.17;;;3.77;;
7045;SDS011;3564;53.326;10.356;2022-09-12T06:43:07;6.00;;;3.80;;
7045;SDS011;3564;53.326;10.356;2022-09-12T06:45:33;3.70;;;3.40;;
7045;SDS011;3564;53.326;10.356;2022-09-12T06:47:59;4.10;;;3.43;;
7045;SDS011;3564;53.326;10.356;2022-09-12T06:50:25;4.90;;;4.33;;
7045;SDS011;3564;53.326;10.356;2022-09-12T06:52:50;4.73;;;4.17;;
7045;SDS011;3564;53.326;10.356;2022-09-12T06:55:16;7.83;;;4.13;;
7045;SDS011;3564;53.326;10.356;2022-09-12T06:57:42;4.60;;;4.20;;
7045;SDS011;3564;53.326;10.356;2022-09-12T07:00:08;4.67;;;3.67;;
7045;SDS011;3564;53.326;10.356;2022-09-12T07:02:35;6.00;;;4.63;;
7045;SDS011;3564;53.326;10.356;2022-09-12T07:05:01;4.90;;;4.50;;
7045;SDS011;3564;53.326;10.356;2022-09-12T07:07:27;5.70;;;5.13;;
7045;SDS011;3564;53.326;10.356;2022-09-12T07:09:52;5.40;;;4.50;;
7045;SDS011;3564;53.326;10.356;2022-09-12T07:12:18;5.47;;;4.50;;
7045;SDS011;3564;53.326;10.356;2022-09-12T07:14:43;5.27;;;4.77;;
7045;SDS011;3564;53.326;10.356;2022-09-12T07:17:09;5.23;;;4.53;;
7045;SDS011;3564;53.326;10.356;2022-09-12T07:19:36;5.40;;;4.73;;
7045;SDS011;3564;53.326;10.356;2022-09-12T07:22:01;7.93;;;5.10;;
7045;SDS011;3564;53.326;10.356;2022-09-12T07:24:27;6.03;;;5.10;;
7045;SDS011;3564;53.326;10.356;2022-09-12T07:26:53;6.53;;;5.43;;
7045;SDS011;3564;53.326;10.356;2022-09-12T07:29:18;5.83;;;5.23;;
7045;SDS011;3564;53.326;10.356;2022-09-12T07:31:44;6.53;;;5.73;;
7045;SDS011;3564;53.326;10.356;2022-09-12T07:34:10;5.47;;;4.97;;
7045;SDS011;3564;53.326;10.356;2022-09-12T07:36:36;5.50;;;5.00;;
7045;SDS011;3564;53.326;10.356;2022-09-12T07:39:03;5.30;;;4.67;;
7045;SDS011;3564;53.326;10.356;2022-09-12T07:41:29;5.60;;;5.00;;
7045;SDS011;3564;53.326;10.356;2022-09-12T07:43:58;6.30;;;4.67;;
7045;SDS011;3564;53.326;10.356;2022-09-12T07:46:25;5.37;;;4.87;;
7045;SDS011;3564;53.326;10.356;2022-09-12T07:48:54;5.60;;;5.10;;
7045;SDS011;3564;53.326;10.356;2022-09-12T07:51:20;6.20;;;5.13;;
7045;SDS011;3564;53.326;10.356;2022-09-12T07:53:47;6.77;;;6.17;;
7045;SDS011;3564;53.326;10.356;2022-09-12T07:56:14;7.23;;;6.50;;
7045;SDS011;3564;53.326;10.356;2022-09-12T07:58:40;6.40;;;5.77;;
7045;SDS011;3564;53.326;10.356;2022-09-12T08:01:13;6.93;;;6.33;;
7045;SDS011;3564;53.326;10.356;2022-09-12T08:03:40;7.27;;;5.93;;
7045;SDS011;3564;53.326;10.356;2022-09-12T08:06:08;6.77;;;5.80;;
7045;SDS011;3564;53.326;10.356;2022-09-12T08:08:35;6.40;;;5.80;;
7045;SDS011;3564;53.326;10.356;2022-09-12T08:11:02;9.73;;;7.70;;
7045;SDS011;3564;53.326;10.356;2022-09-12T08:13:30;7.40;;;6.70;;
7045;SDS011;3564;53.326;10.356;2022-09-12T08:16:01;6.90;;;6.20;;
7045;SDS011;3564;53.326;10.356;2022-09-12T08:18:30;6.23;;;5.73;;
7045;SDS011;3564;53.326;10.356;2022-09-12T08:20:57;7.20;;;6.20;;
7045;SDS011;3564;53.326;10.356;2022-09-12T08:23:24;7.27;;;6.00;;
7045;SDS011;3564;53.326;10.356;2022-09-12T08:25:50;5.73;;;5.13;;
7045;SDS011;3564;53.326;10.356;2022-09-12T08:28:18;4.80;;;4.33;;
7045;SDS011;3564;53.326;10.356;2022-09-12T08:30:44;4.10;;;3.70;;
7045;SDS011;3564;53.326;10.356;2022-09-12T08:33:10;5.83;;;4.80;;
7045;SDS011;3564;53.326;10.356;2022-09-12T08:35:35;5.70;;;5.20;;
7045;SDS011;3564;53.326;10.356;2022-09-12T08:38:00;4.70;;;4.27;;
7045;SDS011;3564;53.326;10.356;2022-09-12T08:40:26;7.27;;;5.53;;
7045;SDS011;3564;53.326;10.356;2022-09-12T08:45:58;3.80;;;3.30;;
7045;SDS011;3564;53.326;10.356;2022-09-12T08:48:31;5.10;;;4.57;;
7045;SDS011;3564;53.326;10.356;2022-09-12T08:50:57;4.37;;;3.97;;
7045;SDS011;3564;53.326;10.356;2022-09-12T08:53:24;4.13;;;3.83;;
7045;SDS011;3564;53.326;10.356;2022-09-12T08:55:57;5.87;;;4.23;;
7045;SDS011;3564;53.326;10.356;2022-09-12T08:58:25;5.53;;;4.40;;
7045;SDS011;3564;53.326;10.356;2022-09-12T09:18:02;2.77;;;2.57;;
7045;SDS011;3564;53.326;10.356;2022-09-12T09:20:52;2.87;;;2.43;;
7045;SDS011;3564;53.326;10.356;2022-09-12T09:25:55;1.97;;;1.83;;
7045;SDS011;3564;53.326;10.356;2022-09-12T09:28:46;2.50;;;2.30;;
7045;SDS011;3564;53.326;10.356;2022-09-12T09:31:23;2.77;;;2.07;;
7045;SDS011;3564;53.326;10.356;2022-09-12T09:34:24;2.10;;;2.00;;
7045;SDS011;3564;53.326;10.356;2022-09-12T09:36:56;2.30;;;1.97;;
7045;SDS011;3564;53.326;10.356;2022-09-12T09:44:46;1.93;;;1.83;;
7045;SDS011;3564;53.326;10.356;2022-09-12T09:47:13;1.77;;;1.67;;
7045;SDS011;3564;53.326;10.356;2022-09-12T09:49:39;1.90;;;1.80;;
7045;SDS011;3564;53.326;10.356;2022-09-12T09:52:06;2.03;;;1.90;;
7045;SDS011;3564;53.326;10.356;2022-09-12T09:54:39;2.23;;;1.80;;
7045;SDS011;3564;53.326;10.356;2022-09-12T09:59:57;2.00;;;1.90;;
7045;SDS011;3564;53.326;10.356;2022-09-12T10:02:23;2.30;;;2.00;;
7045;SDS011;3564;53.326;10.356;2022-09-12T10:04:54;1.80;;;1.70;;
7045;SDS011;3564;53.326;10.356;2022-09-12T10:07:48;3.50;;;1.80;;
7045;SDS011;3564;53.326;10.356;2022-09-12T10:10:16;2.93;;;2.00;;
7045;SDS011;3564;53.326;10.356;2022-09-12T10:12:43;1.90;;;1.80;;
7045;SDS011;3564;53.326;10.356;2022-09-12T10:15:16;1.87;;;1.77;;
7045;SDS011;3564;53.326;10.356;2022-09-12T10:17:46;30.73;;;3.80;;
7045;SDS011;3564;53.326;10.356;2022-09-12T10:23:00;7.57;;;2.10;;
7045;SDS011;3564;53.326;10.356;2022-09-12T10:25:31;2.50;;;1.77;;
7045;SDS011;3564;53.326;10.356;2022-09-12T10:27:57;1.70;;;1.60;;
7045;SDS011;3564;53.326;10.356;2022-09-12T10:30:25;2.23;;;1.77;;
7045;SDS011;3564;53.326;10.356;2022-09-12T10:32:56;1.90;;;1.70;;
7045;SDS011;3564;53.326;10.356;2022-09-12T10:35:30;1.70;;;1.60;;
7045;SDS011;3564;53.326;10.356;2022-09-12T10:38:27;2.03;;;1.80;;
7045;SDS011;3564;53.326;10.356;2022-09-12T10:48:40;1.80;;;1.70;;
7045;SDS011;3564;53.326;10.356;2022-09-12T10:51:40;1.83;;;1.53;;
7045;SDS011;3564;53.326;10.356;2022-09-12T10:54:03;1.70;;;1.60;;
7045;SDS011;3564;53.326;10.356;2022-09-12T10:56:32;1.40;;;1.30;;
7045;SDS011;3564;53.326;10.356;2022-09-12T11:01:49;2.90;;;1.70;;
7045;SDS011;3564;53.326;10.356;2022-09-12T11:23:47;1.50;;;1.40;;
7045;SDS011;3564;53.326;10.356;2022-09-12T11:37:02;1.50;;;1.40;;
7045;SDS011;3564;53.326;10.356;2022-09-12T11:39:50;1.40;;;1.30;;
7045;SDS011;3564;53.326;10.356;2022-09-12T11:42:20;1.30;;;1.20;;
7045;SDS011;3564;53.326;10.356;2022-09-12T11:45:01;2.80;;;1.33;;
7045;SDS011;3564;53.326;10.356;2022-09-12T11:47:37;1.60;;;1.50;;
7045;SDS011;3564;53.326;10.356;2022-09-12T11:50:07;1.40;;;1.30;;
7045;SDS011;3564;53.326;10.356;2022-09-12T11:52:50;1.40;;;1.30;;
7045;SDS011;3564;53.326;10.356;2022-09-12T11:55:21;1.50;;;1.40;;
7045;SDS011;3564;53.326;10.356;2022-09-12T11:57:54;1.40;;;1.30;;
7045;SDS011;3564;53.326;10.356;2022-09-12T12:00:23;1.90;;;1.40;;
7045;SDS011;3564;53.326;10.356;2022-09-12T12:06:00;1.40;;;1.30;;
7045;SDS011;3564;53.326;10.356;2022-09-12T12:08:39;1.40;;;1.30;;
7045;SDS011;3564;53.326;10.356;2022-09-12T12:11:23;3.63;;;1.43;;
7045;SDS011;3564;53.326;10.356;2022-09-12T12:14:03;2.60;;;1.50;;
7045;SDS011;3564;53.326;10.356;2022-09-12T12:16:38;1.30;;;1.20;;
7045;SDS011;3564;53.326;10.356;2022-09-12T12:21:40;1.40;;;1.30;;
7045;SDS011;3564;53.326;10.356;2022-09-12T12:24:11;1.97;;;1.70;;
7045;SDS011;3564;53.326;10.356;2022-09-12T12:29:09;1.57;;;1.47;;
7045;SDS011;3564;53.326;10.356;2022-09-12T12:45:00;2.00;;;1.70;;
7045;SDS011;3564;53.326;10.356;2022-09-12T12:47:30;1.60;;;1.50;;
7045;SDS011;3564;53.326;10.356;2022-09-12T12:49:59;1.93;;;1.70;;
7045;SDS011;3564;53.326;10.356;2022-09-12T12:52:30;2.37;;;1.77;;
7045;SDS011;3564;53.326;10.356;2022-09-12T12:55:12;1.53;;;1.43;;
7045;SDS011;3564;53.326;10.356;2022-09-12T12:57:56;1.73;;;1.63;;
7045;SDS011;3564;53.326;10.356;2022-09-12T13:05:49;1.83;;;1.50;;
7045;SDS011;3564;53.326;10.356;2022-09-12T13:08:25;1.70;;;1.60;;
7045;SDS011;3564;53.326;10.356;2022-09-12T13:11:08;1.77;;;1.40;;
7045;SDS011;3564;53.326;10.356;2022-09-12T13:13:49;1.90;;;1.67;;
7045;SDS011;3564;53.326;10.356;2022-09-12T13:16:31;2.30;;;1.50;;
7045;SDS011;3564;53.326;10.356;2022-09-12T13:19:03;1.40;;;1.30;;
7045;SDS011;3564;53.326;10.356;2022-09-12T13:21:38;1.60;;;1.50;;
7045;SDS011;3564;53.326;10.356;2022-09-12T13:24:19;1.60;;;1.50;;
7045;SDS011;3564;53.326;10.356;2022-09-12T13:26:46;1.40;;;1.30;;
7045;SDS011;3564;53.326;10.356;2022-09-12T13:29:16;1.73;;;1.53;;
7045;SDS011;3564;53.326;10.356;2022-09-12T13:31:44;1.70;;;1.60;;
7045;SDS011;3564;53.326;10.356;2022-09-12T13:34:15;1.70;;;1.60;;
7045;SDS011;3564;53.326;10.356;2022-09-12T13:44:55;1.70;;;1.60;;
7045;SDS011;3564;53.326;10.356;2022-09-12T13:48:12;1.60;;;1.50;;
7045;SDS011;3564;53.326;10.356;2022-09-12T13:53:16;1.50;;;1.40;;
7045;SDS011;3564;53.326;10.356;2022-09-12T13:55:48;1.67;;;1.57;;
7045;SDS011;3564;53.326;10.356;2022-09-12T13:58:21;1.70;;;1.40;;
7045;SDS011;3564;53.326;10.356;2022-09-12T14:01:01;1.60;;;1.50;;
7045;SDS011;3564;53.326;10.356;2022-09-12T14:03:59;1.90;;;1.57;;
7045;SDS011;3564;53.326;10.356;2022-09-12T14:06:52;2.30;;;1.70;;
7045;SDS011;3564;53.326;10.356;2022-09-12T14:09:21;1.63;;;1.50;;
7045;SDS011;3564;53.326;10.356;2022-09-12T14:11:59;1.57;;;1.47;;
7045;SDS011;3564;53.326;10.356;2022-09-12T14:17:17;1.77;;;1.67;;
7045;SDS011;3564;53.326;10.356;2022-09-12T14:19:48;2.00;;;1.40;;
7045;SDS011;3564;53.326;10.356;2022-09-12T14:22:34;1.50;;;1.40;;
7045;SDS011;3564;53.326;10.356;2022-09-12T14:25:02;1.50;;;1.40;;
7045;SDS011;3564;53.326;10.356;2022-09-12T14:27:30;1.60;;;1.50;;
7045;SDS011;3564;53.326;10.356;2022-09-12T14:30:16;1.60;;;1.50;;
7045;SDS011;3564;53.326;10.356;2022-09-12T14:35:35;1.70;;;1.60;;
7045;SDS011;3564;53.326;10.356;2022-09-12T14:38:06;2.43;;;1.80;;
7045;SDS011;3564;53.326;10.356;2022-09-12T14:40:45;1.60;;;1.50;;
7045;SDS011;3564;53.326;10.356;2022-09-12T14:43:17;1.50;;;1.40;;
7045;SDS011;3564;53.326;10.356;2022-09-12T14:46:05;2.53;;;1.63;;
7045;SDS011;3564;53.326;10.356;2022-09-12T14:49:06;2.20;;;1.67;;
7045;SDS011;3564;53.326;10.356;2022-09-12T14:52:06;2.13;;;1.70;;
7045;SDS011;3564;53.326;10.356;2022-09-12T14:54:54;1.67;;;1.50;;
7045;SDS011;3564;53.326;10.356;2022-09-12T14:59:52;1.60;;;1.50;;
7045;SDS011;3564;53.326;10.356;2022-09-12T15:02:28;1.50;;;1.40;;
7045;SDS011;3564;53.326;10.356;2022-09-12T15:05:13;1.80;;;1.70;;
7045;SDS011;3564;53.326;10.356;2022-09-12T15:10:34;1.80;;;1.48;;
7045;SDS011;3564;53.326;10.356;2022-09-12T15:13:23;1.50;;;1.40;;
7045;SDS011;3564;53.326;10.356;2022-09-12T15:15:54;1.65;;;1.55;;
7045;SDS011;3564;53.326;10.356;2022-09-12T15:18:39;2.60;;;1.38;;
7045;SDS011;3564;53.326;10.356;2022-09-12T15:21:05;1.85;;;1.70;;
7045;SDS011;3564;53.326;10.356;2022-09-12T15:23:51;1.83;;;1.60;;
7045;SDS011;3564;53.326;10.356;2022-09-12T15:26:21;3.20;;;1.80;;
7045;SDS011;3564;53.326;10.356;2022-09-12T15:28:48;2.35;;;1.52;;
7045;SDS011;3564;53.326;10.356;2022-09-12T15:31:33;2.78;;;1.88;;
7045;SDS011;3564;53.326;10.356;2022-09-12T15:33:59;3.08;;;1.90;;
7045;SDS011;3564;53.326;10.356;2022-09-12T15:36:45;2.27;;;1.73;;
7045;SDS011;3564;53.326;10.356;2022-09-12T15:39:30;2.30;;;2.10;;
7045;SDS011;3564;53.326;10.356;2022-09-12T15:41:56;1.80;;;1.70;;
7045;SDS011;3564;53.326;10.356;2022-09-12T15:44:22;1.73;;;1.63;;
7045;SDS011;3564;53.326;10.356;2022-09-12T15:46:48;2.07;;;1.70;;
7045;SDS011;3564;53.326;10.356;2022-09-12T15:49:13;2.03;;;1.93;;
7045;SDS011;3564;53.326;10.356;2022-09-12T15:51:39;2.70;;;2.00;;
7045;SDS011;3564;53.326;10.356;2022-09-12T15:54:04;2.40;;;1.70;;
7045;SDS011;3564;53.326;10.356;2022-09-12T15:56:30;2.20;;;2.00;;
7045;SDS011;3564;53.326;10.356;2022-09-12T15:58:56;3.28;;;2.20;;
7045;SDS011;3564;53.326;10.356;2022-09-12T16:01:21;2.35;;;2.10;;
7045;SDS011;3564;53.326;10.356;2022-09-12T16:03:47;2.33;;;1.92;;
7045;SDS011;3564;53.326;10.356;2022-09-12T16:06:12;2.17;;;1.98;;
7045;SDS011;3564;53.326;10.356;2022-09-12T16:08:39;1.88;;;1.73;;
7045;SDS011;3564;53.326;10.356;2022-09-12T16:11:11;3.33;;;1.83;;
7045;SDS011;3564;53.326;10.356;2022-09-12T16:13:42;2.05;;;1.80;;
7045;SDS011;3564;53.326;10.356;2022-09-12T16:16:11;2.33;;;2.10;;
7045;SDS011;3564;53.326;10.356;2022-09-12T16:18:39;2.47;;;2.28;;
7045;SDS011;3564;53.326;10.356;2022-09-12T16:21:06;4.32;;;2.47;;
7045;SDS011;3564;53.326;10.356;2022-09-12T16:23:31;2.40;;;2.20;;
7045;SDS011;3564;53.326;10.356;2022-09-12T16:25:57;2.87;;;2.10;;
7045;SDS011;3564;53.326;10.356;2022-09-12T16:28:24;2.50;;;2.30;;
7045;SDS011;3564;53.326;10.356;2022-09-12T16:30:57;3.53;;;2.40;;
7045;SDS011;3564;53.326;10.356;2022-09-12T16:33:28;2.37;;;2.17;;
7045;SDS011;3564;53.326;10.356;2022-09-12T16:36:01;2.80;;;2.60;;
7045;SDS011;3564;53.326;10.356;2022-09-12T16:38:30;3.50;;;3.20;;
7045;SDS011;3564;53.326;10.356;2022-09-12T16:40:59;3.97;;;3.67;;
7045;SDS011;3564;53.326;10.356;2022-09-12T16:43:28;4.70;;;2.93;;
7045;SDS011;3564;53.326;10.356;2022-09-12T16:46:08;3.37;;;2.43;;
7045;SDS011;3564;53.326;10.356;2022-09-12T16:48:35;3.13;;;2.83;;
7045;SDS011;3564;53.326;10.356;2022-09-12T16:51:03;3.00;;;2.70;;
7045;SDS011;3564;53.326;10.356;2022-09-12T16:53:34;2.87;;;2.60;;
7045;SDS011;3564;53.326;10.356;2022-09-12T16:56:02;2.80;;;2.60;;
7045;SDS011;3564;53.326;10.356;2022-09-12T16:58:32;2.80;;;2.60;;
7045;SDS011;3564;53.326;10.356;2022-09-12T17:00:59;3.03;;;2.70;;
7045;SDS011;3564;53.326;10.356;2022-09-12T17:03:29;3.50;;;2.80;;
7045;SDS011;3564;53.326;10.356;2022-09-12T17:05:56;3.73;;;2.90;;
7045;SDS011;3564;53.326;10.356;2022-09-12T17:08:33;3.53;;;2.97;;
7045;SDS011;3564;53.326;10.356;2022-09-12T17:11:01;5.70;;;2.70;;
7045;SDS011;3564;53.326;10.356;2022-09-12T17:13:28;5.40;;;3.50;;
7045;SDS011;3564;53.326;10.356;2022-09-12T17:15:54;3.27;;;2.97;;
7045;SDS011;3564;53.326;10.356;2022-09-12T17:18:20;3.50;;;3.20;;
7045;SDS011;3564;53.326;10.356;2022-09-12T17:20:46;4.20;;;3.13;;
7045;SDS011;3564;53.326;10.356;2022-09-12T17:23:12;4.33;;;3.27;;
7045;SDS011;3564;53.326;10.356;2022-09-12T17:25:37;5.80;;;3.30;;
7045;SDS011;3564;53.326;10.356;2022-09-12T17:28:03;3.17;;;2.80;;
7045;SDS011;3564;53.326;10.356;2022-09-12T17:30:36;4.00;;;2.83;;
7045;SDS011;3564;53.326;10.356;2022-09-12T17:33:01;3.13;;;2.83;;
7045;SDS011;3564;53.326;10.356;2022-09-12T17:35:27;2.97;;;2.60;;
7045;SDS011;3564;53.326;10.356;2022-09-12T17:37:53;3.10;;;2.90;;
7045;SDS011;3564;53.326;10.356;2022-09-12T17:40:19;2.93;;;2.50;;
7045;SDS011;3564;53.326;10.356;2022-09-12T17:42:45;3.17;;;2.87;;
7045;SDS011;3564;53.326;10.356;2022-09-12T17:45:11;2.73;;;2.50;;
7045;SDS011;3564;53.326;10.356;2022-09-12T17:47:37;4.03;;;2.70;;
7045;SDS011;3564;53.326;10.356;2022-09-12T17:50:04;2.93;;;2.60;;
7045;SDS011;3564;53.326;10.356;2022-09-12T17:52:29;3.57;;;3.03;;
7045;SDS011;3564;53.326;10.356;2022-09-12T17:54:55;4.20;;;2.80;;
7045;SDS011;3564;53.326;10.356;2022-09-12T17:57:21;2.73;;;2.53;;
7045;SDS011;3564;53.326;10.356;2022-09-12T17:59:47;4.17;;;2.80;;
7045;SDS011;3564;53.326;10.356;2022-09-12T18:02:12;3.40;;;3.10;;
7045;SDS011;3564;53.326;10.356;2022-09-12T18:04:42;3.33;;;3.03;;
7045;SDS011;3564;53.326;10.356;2022-09-12T18:07:12;3.60;;;3.30;;
7045;SDS011;3564;53.326;10.356;2022-09-12T18:09:40;5.83;;;3.20;;
7045;SDS011;3564;53.326;10.356;2022-09-12T18:12:09;4.30;;;3.10;;
7045;SDS011;3564;53.326;10.356;2022-09-12T18:14:35;3.70;;;3.20;;